»·PEaware :: AAY533 KPVU-KIWA

AAY533 :: KPVU-KIWA

FLIGHT INFORMATION

Flight Status: Arrived
Operator:
Allegiant Air
More flights by this operator :: More flights under this callsign
Pilot: James B. (24167)
Aircraft: AIRBUS A320
(A320)
More flights by this aircraft type
Origin: KPVU Provo Mun
United States
Destination: KIWA Williams Gateway
United States
More flights between these airports :: More routes between these airports
Route: +PROVO4 FFU J11 KIDDR DSERT2
File this flight plan on PilotEdge
Remarks:
Altitude:
(Current/Filed)
37,000ft
Speed:
(Current/Filed)
453kts
Departed: 03-Sep-19 08:43 PM
Arrived: 03-Sep-19 09:59 PM
Distance/Time
Traveled:
415nm/1:16
Distance/Time
To Go:
Arrived

Flight Plot

Page will automatically refresh every two minutes.

Flight plan parsing failed; only flown route is shown


Map Options




Map Legend


Flown Route
Filed Route
Departure Airport
Arrival Airport
Navaid (VOR, NDB)
Fix

Horizontal Profiles

Position Reports

Time Latitude Longitude Heading Altitude Ground
Speed
03-Sep-19 20:17 40.219401 -111.719596 92 4504ft 0kts
03-Sep-19 20:18 40.219401 -111.719596 92 4504ft 0kts
03-Sep-19 20:19 40.219401 -111.719596 92 4504ft 0kts
03-Sep-19 20:20 40.219401 -111.719596 92 4504ft 0kts
03-Sep-19 20:21 40.219401 -111.719596 92 4504ft 0kts
03-Sep-19 20:22 40.219401 -111.719596 92 4504ft 0kts
03-Sep-19 20:23 40.219401 -111.719596 92 4504ft 0kts
03-Sep-19 20:24 40.219401 -111.719596 92 4504ft 0kts
03-Sep-19 20:25 40.219401 -111.719596 92 4504ft 0kts
03-Sep-19 20:26 40.219401 -111.719596 92 4504ft 0kts
03-Sep-19 20:27 40.219401 -111.719596 92 4504ft 0kts
03-Sep-19 20:28 40.219401 -111.719596 92 4504ft 0kts
03-Sep-19 20:29 40.219401 -111.719596 92 4504ft 0kts
03-Sep-19 20:30 40.219401 -111.719596 92 4504ft 0kts
03-Sep-19 20:31 40.219401 -111.719596 92 4504ft 0kts
03-Sep-19 20:32 40.219401 -111.719596 92 4504ft 0kts
03-Sep-19 20:33 40.219401 -111.719596 92 4504ft 0kts
03-Sep-19 20:34 40.219401 -111.719596 92 4504ft 0kts
03-Sep-19 20:35 40.219401 -111.719596 92 4504ft 0kts
03-Sep-19 20:36 40.219401 -111.719596 92 4504ft 0kts
03-Sep-19 20:37 40.219358 -111.720330 284 4504ft 8kts
03-Sep-19 20:38 40.222302 -111.722894 326 4504ft 20kts
03-Sep-19 20:39 40.227590 -111.727553 325 4500ft 22kts
03-Sep-19 20:40 40.230781 -111.731008 241 4501ft 6kts
03-Sep-19 20:41 40.229922 -111.732170 145 4501ft 7kts
03-Sep-19 20:42 40.204277 -111.709683 148 5366ft 196kts
03-Sep-19 20:43 40.167596 -111.745054 272 8182ft 223kts
03-Sep-19 20:45 40.169784 -111.834650 271 10950ft 255kts
03-Sep-19 20:46 40.146746 -111.919072 238 12030ft 250kts
03-Sep-19 20:47 40.152222 -111.996347 337 12021ft 259kts
03-Sep-19 20:48 40.221745 -111.975076 28 14151ft 272kts
03-Sep-19 20:49 40.257539 -111.896720 117 16051ft 310kts
03-Sep-19 20:50 40.179015 -111.879700 220 17092ft 360kts
03-Sep-19 20:51 40.099654 -111.964297 207 19298ft 373kts
03-Sep-19 20:52 39.996160 -111.980538 187 21341ft 385kts
03-Sep-19 20:53 39.891438 -111.995363 188 22834ft 402kts
03-Sep-19 20:54 39.778857 -112.012124 187 24501ft 410kts
03-Sep-19 20:55 39.664489 -112.028749 187 26150ft 415kts
03-Sep-19 20:56 39.550146 -112.045758 188 27650ft 418kts
03-Sep-19 20:57 39.433320 -112.061935 188 28901ft 425kts
03-Sep-19 20:58 39.314965 -112.078588 188 30129ft 428kts
03-Sep-19 20:59 39.195638 -112.095415 188 30916ft 439kts
03-Sep-19 21:00 39.074302 -112.112188 188 32140ft 437kts
03-Sep-19 21:01 38.954362 -112.129767 189 33349ft 433kts
03-Sep-19 21:02 38.835004 -112.146065 189 34332ft 434kts
03-Sep-19 21:03 38.715449 -112.161783 187 35362ft 432kts
03-Sep-19 21:04 38.596937 -112.177901 190 36094ft 434kts
03-Sep-19 21:05 38.477081 -112.195694 189 36945ft 432kts
03-Sep-19 21:06 38.357708 -112.212415 189 37207ft 434kts
03-Sep-19 21:07 38.237965 -112.228985 189 37454ft 435kts
03-Sep-19 21:07 38.137419 -112.242806 189 37428ft 439kts
03-Sep-19 21:09 37.994651 -112.262353 189 37425ft 444kts
03-Sep-19 21:10 37.871920 -112.279083 189 37426ft 444kts
03-Sep-19 21:10 37.769609 -112.292997 189 37427ft 444kts
03-Sep-19 21:12 37.626352 -112.307751 185 37421ft 447kts
03-Sep-19 21:12 37.523136 -112.314063 185 37429ft 447kts
03-Sep-19 21:13 37.398862 -112.321638 185 37431ft 447kts
03-Sep-19 21:14 37.274965 -112.329166 185 37270ft 447kts
03-Sep-19 21:15 37.152538 -112.336578 185 37223ft 447kts
03-Sep-19 21:16 37.027978 -112.344100 185 37230ft 448kts
03-Sep-19 21:17 36.903250 -112.351607 185 37237ft 448kts
03-Sep-19 21:18 36.780584 -112.358975 185 37238ft 448kts
03-Sep-19 21:19 36.656032 -112.366431 184 37234ft 448kts
03-Sep-19 21:20 36.532409 -112.373808 184 37234ft 448kts
03-Sep-19 21:21 36.407824 -112.381216 184 37310ft 447kts
03-Sep-19 21:22 36.283407 -112.388595 184 37354ft 449kts
03-Sep-19 21:23 36.158821 -112.395959 184 37353ft 450kts
03-Sep-19 21:24 36.034254 -112.403297 184 37353ft 451kts
03-Sep-19 21:25 35.909420 -112.410613 184 36796ft 446kts
03-Sep-19 21:26 35.785913 -112.417845 184 34144ft 449kts
03-Sep-19 21:27 35.659720 -112.425225 182 30935ft 461kts
03-Sep-19 21:28 35.531604 -112.432676 182 29342ft 469kts
03-Sep-19 21:29 35.401656 -112.440189 182 29338ft 467kts
03-Sep-19 21:30 35.272074 -112.447691 182 29338ft 467kts
03-Sep-19 21:31 35.142491 -112.455173 182 29327ft 467kts
03-Sep-19 21:32 35.012609 -112.462656 182 27363ft 475kts
03-Sep-19 21:33 34.882571 -112.458518 164 24910ft 463kts
03-Sep-19 21:34 34.778026 -112.376917 129 22574ft 445kts
03-Sep-19 21:35 34.732496 -112.243244 97 20251ft 429kts
03-Sep-19 21:36 34.714475 -112.102677 113 19209ft 421kts
03-Sep-19 21:37 34.646199 -111.988123 126 19089ft 416kts
03-Sep-19 21:38 34.577384 -111.878605 126 16772ft 402kts
03-Sep-19 21:39 34.509396 -111.770608 126 16343ft 402kts
03-Sep-19 21:40 34.427655 -111.683315 164 16367ft 406kts
03-Sep-19 21:41 34.317855 -111.703687 191 14291ft 402kts
03-Sep-19 21:42 34.212136 -111.736218 192 12144ft 377kts
03-Sep-19 21:43 34.117025 -111.765022 192 11416ft 321kts
03-Sep-19 21:44 34.035784 -111.789523 192 11392ft 296kts
03-Sep-19 21:45 33.962604 -111.761259 145 10021ft 293kts
03-Sep-19 21:46 33.897222 -111.706116 144 8731ft 279kts
03-Sep-19 21:47 33.833570 -111.652990 144 7220ft 277kts
03-Sep-19 21:48 33.768891 -111.600505 156 7064ft 282kts
03-Sep-19 21:49 33.691478 -111.599055 181 6116ft 278kts
03-Sep-19 21:50 33.620876 -111.603023 180 6058ft 238kts
03-Sep-19 21:51 33.556776 -111.618873 212 5895ft 237kts
03-Sep-19 21:52 33.503774 -111.658755 208 5401ft 216kts
03-Sep-19 21:53 33.454034 -111.691981 208 4642ft 191kts
03-Sep-19 21:54 33.409920 -111.721955 209 3578ft 178kts
03-Sep-19 21:55 33.369827 -111.734483 134 2789ft 152kts
03-Sep-19 21:56 33.340063 -111.699204 131 1995ft 149kts
03-Sep-19 21:57 33.311209 -111.665334 135 1361ft 116kts
03-Sep-19 21:58 33.302165 -111.655025 181 1376ft 10kts
03-Sep-19 21:59 33.303863 -111.658796 315 1372ft 22kts
03-Sep-19 22:00 33.307018 -111.664069 270 1365ft 16kts
03-Sep-19 22:01 33.306368 -111.667481 198 1360ft 0kts
03-Sep-19 22:02 33.306341 -111.668447 269 1360ft 0kts
03-Sep-19 22:03 33.306341 -111.668447 269 1360ft 0kts
03-Sep-19 22:04 33.306341 -111.668447 269 1360ft 0kts
03-Sep-19 22:05 33.306341 -111.668447 269 1360ft 0kts
03-Sep-19 22:06 33.306341 -111.668447 269 1360ft 0kts
03-Sep-19 22:07 33.306341 -111.668447 269 1360ft 0kts
03-Sep-19 22:08 33.306341 -111.668447 269 1360ft 0kts
03-Sep-19 22:09 33.306341 -111.668447 269 1360ft 0kts
03-Sep-19 22:10 33.306341 -111.668447 269 1360ft 0kts
03-Sep-19 22:11 33.306341 -111.668447 269 1360ft 0kts
03-Sep-19 22:12 33.306341 -111.668447 269 1360ft 0kts
03-Sep-19 22:13 33.306341 -111.668447 269 1360ft 0kts

Navigation Log

Ident Type
Flight plan parsing failed, navigation log unavailable